Time,TemperatureF,DewpointF,PressureIn,WindDirection,WindDirectionDegrees,WindSpeedMPH,WindSpeedGustMPH,Humidity,HourlyPrecipIn,Conditions,Clouds,dailyrainin,SoftwareType,DateUTC
2013-09-15 00:02:00,-999.0,-99.9,30.13,South,181,0.0,-999.0,-999,-99.99,,,-99.99,,2013-09-15 04:02:00,
2013-09-15 00:14:00,59.0,53.0,30.13,South,181,0.0,-999.0,80,-99.99,,,-99.99,,2013-09-15 04:14:00,
2013-09-15 00:24:00,59.0,54.0,30.14,South,181,0.0,-999.0,82,-99.99,,,-99.99,,2013-09-15 04:24:00,
2013-09-15 00:54:00,59.0,54.0,30.14,South,181,0.0,-999.0,84,-99.99,,,-99.99,,2013-09-15 04:54:00,
2013-09-15 01:13:00,58.0,53.0,30.14,South,181,0.0,-999.0,84,-99.99,,,-99.99,,2013-09-15 05:13:00,
2013-09-15 01:22:00,58.0,53.0,30.15,South,181,0.0,-999.0,83,-99.99,,,-99.99,,2013-09-15 05:22:00,
2013-09-15 01:42:00,58.0,53.0,30.15,South,181,0.0,-999.0,84,-99.99,,,-99.99,,2013-09-15 05:42:00,
2013-09-15 01:52:00,58.0,54.0,30.16,South,181,0.0,-999.0,85,-99.99,,,-99.99,,2013-09-15 05:52:00,
2013-09-15 02:12:00,58.0,53.0,30.16,South,181,0.0,-999.0,84,-99.99,,,-99.99,,2013-09-15 06:12:00,
2013-09-15 02:21:00,58.0,53.0,30.16,South,181,0.0,-999.0,84,-99.99,,,-99.99,,2013-09-15 06:21:00,
2013-09-15 02:52:00,58.0,53.0,30.16,South,181,0.0,-999.0,84,-99.99,,,-99.99,,2013-09-15 06:52:00,
2013-09-15 03:11:00,57.0,52.0,30.17,South,181,0.0,-999.0,84,-99.99,,,-99.99,,2013-09-15 07:11:00,
2013-09-15 03:22:00,58.0,54.0,30.16,South,181,0.0,-999.0,85,-99.99,,,-99.99,,2013-09-15 07:22:00,
2013-09-15 03:53:00,58.0,54.0,30.16,South,181,0.0,-999.0,85,-99.99,,,-99.99,,2013-09-15 07:53:00,
2013-09-15 04:11:00,58.0,54.0,30.16,South,181,0.0,-999.0,86,-99.99,,,-99.99,,2013-09-15 08:11:00,
2013-09-15 04:22:00,58.0,54.0,30.16,South,181,0.0,-999.0,85,-99.99,,,-99.99,,2013-09-15 08:22:00,
2013-09-15 04:52:00,57.0,53.0,30.17,South,181,0.0,-999.0,86,-99.99,,,-99.99,,2013-09-15 08:52:00,
2013-09-15 05:12:00,57.0,53.0,30.18,South,181,0.0,-999.0,86,-99.99,,,-99.99,,2013-09-15 09:12:00,
2013-09-15 05:22:00,57.0,53.0,30.17,South,181,0.0,-999.0,87,-99.99,,,-99.99,,2013-09-15 09:22:00,
2013-09-15 05:53:00,56.0,52.0,30.18,South,181,0.0,-999.0,86,-99.99,,,-99.99,,2013-09-15 09:53:00,
2013-09-15 06:13:00,56.0,52.0,30.18,South,181,0.0,-999.0,87,-99.99,,,-99.99,,2013-09-15 10:13:00,
2013-09-15 06:23:00,56.0,52.0,30.18,South,181,0.0,-999.0,87,-99.99,,,-99.99,,2013-09-15 10:23:00,
2013-09-15 06:43:00,55.0,52.0,30.19,South,181,0.0,-999.0,88,-99.99,,,-99.99,,2013-09-15 10:43:00,
2013-09-15 06:53:00,55.0,52.0,30.19,South,181,0.0,-999.0,89,-99.99,,,-99.99,,2013-09-15 10:53:00,
2013-09-15 07:12:00,54.0,51.0,30.19,South,181,0.0,-999.0,90,-99.99,,,-99.99,,2013-09-15 11:12:00,
2013-09-15 07:22:00,54.0,51.0,30.20,South,181,0.0,-999.0,91,-99.99,,,-99.99,,2013-09-15 11:22:00,
2013-09-15 07:52:00,53.0,51.0,30.21,South,181,0.0,-999.0,93,-99.99,,,-99.99,,2013-09-15 11:52:00,
2013-09-15 08:12:00,54.0,52.0,30.21,South,181,0.0,-999.0,93,-99.99,,,-99.99,,2013-09-15 12:12:00,
2013-09-15 08:21:00,54.0,52.0,30.22,South,181,0.0,-999.0,94,-99.99,,,-99.99,,2013-09-15 12:21:00,
2013-09-15 08:52:00,56.0,54.0,30.22,South,181,0.0,-999.0,92,-99.99,,,-99.99,,2013-09-15 12:52:00,
2013-09-15 09:11:00,56.0,52.0,30.22,South,181,0.0,-999.0,87,-99.99,,,-99.99,,2013-09-15 13:11:00,
2013-09-15 09:22:00,57.0,53.0,30.22,South,181,0.0,-999.0,88,-99.99,,,-99.99,,2013-09-15 13:22:00,
2013-09-15 09:32:00,57.0,53.0,30.22,South,181,0.0,-999.0,88,-99.99,,,-99.99,,2013-09-15 13:32:00,
2013-09-15 09:53:00,58.0,54.0,30.22,South,183,0.0,-999.0,88,-99.99,,,-99.99,,2013-09-15 13:53:00,
2013-09-15 10:22:00,59.0,54.0,30.22,South,173,0.0,-999.0,85,-99.99,,,-99.99,,2013-09-15 14:22:00,
2013-09-15 15:22:00,75.0,62.0,30.16,SSE,167,1.0,-999.0,63,-99.99,,,-99.99,,2013-09-15 19:22:00,
2013-09-15 15:52:00,75.0,62.0,30.16,South,175,0.0,-999.0,63,-99.99,,,-99.99,,2013-09-15 19:52:00,
2013-09-15 16:11:00,74.0,61.0,30.15,South,185,1.0,-999.0,64,-99.99,,,-99.99,,2013-09-15 20:11:00,
2013-09-15 16:22:00,74.0,61.0,30.14,SSE,165,1.0,-999.0,64,-99.99,,,-99.99,,2013-09-15 20:22:00,
2013-09-15 16:53:00,73.0,60.0,30.13,SSE,168,1.0,-999.0,63,-99.99,,,-99.99,,2013-09-15 20:53:00,
2013-09-15 17:11:00,73.0,61.0,30.13,South,171,0.0,-999.0,67,-99.99,,,-99.99,,2013-09-15 21:11:00,
2013-09-15 17:22:00,73.0,62.0,30.14,South,170,0.0,-999.0,68,-99.99,,,-99.99,,2013-09-15 21:22:00,
2013-09-15 17:44:00,72.0,61.0,30.13,SSE,156,0.0,-999.0,69,-99.99,,,-99.99,,2013-09-15 21:44:00,
2013-09-15 17:54:00,72.0,62.0,30.13,SSW,200,1.0,-999.0,71,-99.99,,,-99.99,,2013-09-15 21:54:00,
2013-09-15 18:14:00,71.0,62.0,30.13,SSE,156,1.0,-999.0,72,-99.99,,,-99.99,,2013-09-15 22:14:00,
2013-09-15 18:23:00,71.0,63.0,30.13,SSW,196,0.0,-999.0,75,-99.99,,,-99.99,,2013-09-15 22:23:00,
2013-09-15 18:53:00,69.0,63.0,30.13,SSW,196,0.0,-999.0,80,-99.99,,,-99.99,,2013-09-15 22:53:00,
2013-09-15 19:12:00,69.0,63.0,30.13,SSW,196,0.0,-999.0,82,-99.99,,,-99.99,,2013-09-15 23:12:00,
2013-09-15 19:22:00,68.0,63.0,30.14,SSW,196,0.0,-999.0,83,-99.99,,,-99.99,,2013-09-15 23:22:00,
2013-09-15 19:53:00,66.0,62.0,30.13,SSW,196,0.0,-999.0,86,-99.99,,,-99.99,,2013-09-15 23:53:00,
2013-09-15 20:11:00,65.0,61.0,30.13,SSW,196,0.0,-999.0,87,-99.99,,,-99.99,,2013-09-16 00:11:00,
2013-09-15 20:22:00,65.0,61.0,30.13,SSW,196,0.0,-999.0,88,-99.99,,,-99.99,,2013-09-16 00:22:00,
2013-09-15 20:42:00,64.0,61.0,30.13,SSW,196,0.0,-999.0,89,-99.99,,,-99.99,,2013-09-16 00:42:00,
2013-09-15 20:52:00,64.0,60.0,30.13,SSW,196,0.0,-999.0,88,-99.99,,,-99.99,,2013-09-16 00:52:00,
2013-09-15 21:12:00,65.0,61.0,30.13,SSW,196,0.0,-999.0,88,-99.99,,,-99.99,,2013-09-16 01:12:00,
2013-09-15 21:21:00,65.0,61.0,30.14,SSW,196,0.0,-999.0,87,-99.99,,,-99.99,,2013-09-16 01:21:00,
2013-09-15 21:42:00,64.0,60.0,30.14,SSW,196,0.0,-999.0,87,-99.99,,,-99.99,,2013-09-16 01:42:00,
2013-09-15 21:52:00,64.0,60.0,30.15,SSW,196,0.0,-999.0,87,-99.99,,,-99.99,,2013-09-16 01:52:00,
2013-09-15 22:12:00,64.0,60.0,30.15,SSW,196,0.0,-999.0,88,-99.99,,,-99.99,,2013-09-16 02:12:00,
2013-09-15 22:22:00,63.0,60.0,30.15,SSW,196,0.0,-999.0,89,-99.99,,,-99.99,,2013-09-16 02:22:00,
2013-09-15 22:42:00,64.0,60.0,30.14,SSW,196,0.0,-999.0,88,-99.99,,,-99.99,,2013-09-16 02:42:00,
2013-09-15 22:52:00,64.0,60.0,30.14,SSW,196,0.0,-999.0,88,-99.99,,,-99.99,,2013-09-16 02:52:00,
2013-09-15 23:11:00,63.0,60.0,30.14,SSW,196,0.0,-999.0,89,-99.99,,,-99.99,,2013-09-16 03:11:00,
2013-09-15 23:22:00,63.0,60.0,30.14,SSW,196,0.0,-999.0,90,-99.99,,,-99.99,,2013-09-16 03:22:00,
2013-09-15 23:55:00,64.0,60.0,30.14,SSW,196,0.0,-999.0,88,-99.99,,,-99.99,,2013-09-16 03:55:00,